Time;durP1;ratioP1;P1;durP2;ratioP2;P2;SDS_P1;SDS_P2;PMS_P1;PMS_P2;Temp;Humidity;BMP_temperature;BMP_pressure;BME280_temperature;BME280_humidity;BME280_pressure;Samples;Min_cycle;Max_cycle;Signal;HPM_P1;HPM_P2
2021/05/01 00:00:14;;;;;;;41.43;29.20;;;9.50;95.90;;;9.12;92.07;97831.69;5051311;28;20718;-70
2021/05/01 00:02:44;;;;;;;37.20;26.60;;;9.50;96.00;;;9.13;91.24;97841.16;5058330;28;20727;-70
2021/05/01 00:05:13;;;;;;;44.20;28.97;;;9.50;96.00;;;9.12;92.07;97850.72;5061407;28;21182;-70
2021/05/01 00:07:40;;;;;;;40.87;29.13;;;9.40;95.90;;;9.09;90.77;97850.91;5063041;28;21029;-70
2021/05/01 00:10:10;;;;;;;40.80;28.80;;;9.40;95.80;;;9.09;91.25;97852.69;5062933;28;20974;-70
2021/05/01 00:12:39;;;;;;;41.50;29.10;;;9.40;95.70;;;9.06;90.93;97851.09;5061918;28;20997;-70
2021/05/01 00:15:10;;;;;;;43.50;30.03;;;9.40;95.60;;;9.08;91.27;97845.81;5062511;28;20724;-70
2021/05/01 00:17:39;;;;;;;46.00;30.27;;;9.40;95.60;;;9.07;91.99;97833.75;5059866;28;20624;-70
2021/05/01 00:20:09;;;;;;;44.97;30.27;;;9.40;95.90;;;9.05;92.22;97833.84;5057325;28;20648;-70
2021/05/01 00:22:36;;;;;;;36.97;27.47;;;9.40;96.00;;;9.05;92.69;97830.41;5059386;28;20627;-70
2021/05/01 00:25:06;;;;;;;42.33;30.67;;;9.40;96.10;;;9.05;92.21;97823.47;5062940;28;20659;-70
2021/05/01 00:27:34;;;;;;;42.90;29.07;;;9.40;96.10;;;9.03;92.61;97820.09;5065180;28;20623;-70
2021/05/01 00:30:03;;;;;;;44.20;28.63;;;9.40;96.00;;;9.00;91.54;97829.88;5060563;28;20631;-70
2021/05/01 00:32:34;;;;;;;52.83;25.17;;;9.30;96.10;;;8.95;92.05;97829.38;5065005;28;20705;-70
2021/05/01 00:35:11;;;;;;;48.70;27.27;;;9.30;96.40;;;8.93;91.63;97826.03;5056433;28;20667;-70
2021/05/01 00:37:39;;;;;;;39.17;26.67;;;9.30;96.10;;;8.92;92.98;97834.78;5061184;28;22167;-70
2021/05/01 00:40:09;;;;;;;42.23;28.80;;;9.30;96.20;;;8.92;92.27;97821.78;5080481;28;21252;-70
2021/05/01 00:42:37;;;;;;;48.20;26.70;;;9.20;96.20;;;8.91;91.83;97830.50;5063219;28;20631;-70
2021/05/01 00:45:07;;;;;;;38.47;26.63;;;9.20;96.20;;;8.90;92.86;97833.19;5061348;28;20634;-70
2021/05/01 00:47:34;;;;;;;38.07;27.07;;;9.20;96.40;;;8.90;92.91;97831.44;5060276;28;21203;-70
2021/05/01 00:50:04;;;;;;;42.33;28.37;;;9.20;96.50;;;8.91;93.14;97821.88;5063106;28;20979;-70
2021/05/01 00:52:34;;;;;;;44.47;27.50;;;9.20;96.60;;;8.89;93.25;97829.78;5058098;28;21054;-70
2021/05/01 00:55:04;;;;;;;66.23;28.27;;;9.20;96.60;;;8.88;92.88;97822.06;5078820;28;21069;-70
2021/05/01 00:57:31;;;;;;;44.40;25.40;;;9.20;96.50;;;8.86;92.36;97810.94;5065966;28;20639;-70
2021/05/01 01:00:00;;;;;;;46.80;26.33;;;9.20;96.60;;;8.85;92.59;97810.09;5066933;28;21007;-70
2021/05/01 01:02:28;;;;;;;58.17;27.60;;;9.20;96.50;;;8.84;93.58;97812.78;5061618;28;20955;-70
2021/05/01 01:04:57;;;;;;;41.03;26.97;;;9.20;96.60;;;8.83;92.64;97811.16;5055664;28;21284;-70
2021/05/01 01:07:24;;;;;;;44.63;27.93;;;9.10;96.50;;;8.81;93.34;97815.59;5057878;28;20727;-70
2021/05/01 01:09:57;;;;;;;41.90;28.83;;;9.20;96.60;;;8.79;92.72;97810.50;5061627;28;20628;-70
2021/05/01 01:12:24;;;;;;;45.27;26.87;;;9.10;96.50;;;8.77;92.55;97816.75;5064379;28;20631;-70
2021/05/01 01:14:52;;;;;;;42.37;27.30;;;9.10;96.50;;;8.77;93.31;97804.56;5062318;28;21267;-70
2021/05/01 01:17:20;;;;;;;82.50;29.10;;;9.10;96.50;;;8.78;93.49;97800.19;5064803;28;20636;-70
2021/05/01 01:19:47;;;;;;;65.97;27.57;;;9.10;96.40;;;8.73;93.34;97805.69;5064228;28;20726;-70
2021/05/01 01:22:19;;;;;;;96.73;27.27;;;9.10;96.30;;;8.71;91.95;97804.16;5064380;28;20662;-70
2021/05/01 01:24:47;;;;;;;91.50;27.60;;;9.00;96.40;;;8.68;91.92;97801.75;5061799;28;20996;-70
2021/05/01 01:27:14;;;;;;;66.73;26.27;;;9.00;96.50;;;8.66;92.75;97807.06;5060630;28;20699;-70
2021/05/01 01:29:44;;;;;;;92.77;27.13;;;9.00;96.60;;;8.65;92.21;97812.34;5062967;28;20632;-70
2021/05/01 01:32:13;;;;;;;54.40;26.33;;;9.00;96.70;;;8.65;92.55;97818.38;5058093;28;21494;-70
2021/05/01 01:34:43;;;;;;;179.77;28.93;;;9.00;96.70;;;8.65;93.51;97817.53;5064342;28;21371;-70
2021/05/01 01:37:11;;;;;;;81.00;27.70;;;9.00;96.60;;;8.62;92.40;97822.94;5061962;28;20648;-70
2021/05/01 01:39:41;;;;;;;86.90;27.20;;;9.00;96.50;;;8.61;92.17;97811.69;5062935;28;20628;-70
2021/05/01 01:42:11;;;;;;;58.77;27.00;;;8.90;96.90;;;8.56;92.40;97808.56;5059866;28;21030;-70
2021/05/01 01:44:39;;;;;;;81.27;29.00;;;8.90;96.60;;;8.54;94.07;97807.84;5061378;28;20632;-70
2021/05/01 01:47:07;;;;;;;70.10;26.17;;;8.90;96.80;;;8.52;93.69;97814.06;5059571;28;20621;-70
2021/05/01 01:49:38;;;;;;;89.30;26.00;;;8.80;96.80;;;8.50;92.54;97826.34;5063966;28;20630;-70
2021/05/01 01:52:06;;;;;;;61.97;26.43;;;8.80;96.90;;;8.48;94.28;97826.44;5056976;28;20641;-71
2021/05/01 01:54:34;;;;;;;77.57;24.63;;;8.80;97.00;;;8.46;93.06;97823.09;5061070;28;20643;-71
2021/05/01 01:57:03;;;;;;;56.37;25.57;;;8.80;97.10;;;8.44;93.26;97825.91;5055797;28;20724;-70
2021/05/01 01:59:32;;;;;;;54.40;24.00;;;8.80;97.10;;;8.41;92.75;97826.09;5061874;28;20698;-70
2021/05/01 02:02:00;;;;;;;75.67;25.53;;;8.70;96.90;;;8.39;92.72;97826.19;5060498;28;21093;-70
2021/05/01 02:04:28;;;;;;;87.37;22.67;;;8.70;96.90;;;8.39;92.72;97827.94;5062146;28;20638;-70
2021/05/01 02:06:55;;;;;;;46.57;24.53;;;8.70;96.90;;;8.36;93.24;97825.53;5062200;28;20638;-70
2021/05/01 02:09:23;;;;;;;58.33;24.70;;;8.70;97.00;;;8.34;94.36;97822.22;5060947;28;20665;-70
2021/05/01 02:11:50;;;;;;;64.77;25.80;;;8.70;97.30;;;8.34;92.75;97822.22;5057722;28;20636;-70
2021/05/01 02:14:25;;;;;;;44.20;23.50;;;8.70;97.00;;;8.32;93.19;97819.72;5061977;28;20643;-70
2021/05/01 02:16:52;;;;;;;51.07;27.17;;;8.60;97.00;;;8.33;93.29;97821.38;5060763;28;21237;-70
2021/05/01 02:19:20;;;;;;;45.43;24.83;;;8.60;97.00;;;8.32;93.63;97821.50;5039482;28;20651;-70
2021/05/01 02:21:59;;;;;;;50.57;24.07;;;8.60;96.90;;;8.30;93.60;97819.00;5057229;28;20627;-70
2021/05/01 02:24:27;;;;;;;42.50;24.03;;;8.60;96.90;;;8.26;92.79;97808.88;5060923;28;20724;-70
2021/05/01 02:26:54;;;;;;;38.97;23.57;;;8.60;96.70;;;8.25;93.78;97809.81;5061430;28;20634;-70
2021/05/01 02:29:22;;;;;;;38.97;24.23;;;8.60;97.10;;;8.26;93.52;97809.72;5059616;28;20644;-70
2021/05/01 02:31:51;;;;;;;42.80;26.13;;;8.60;96.70;;;8.30;92.29;97815.53;5058630;28;20638;-70
2021/05/01 02:34:19;;;;;;;56.57;27.57;;;8.60;96.50;;;8.21;92.05;97808.31;5062724;28;20687;-71
2021/05/01 02:36:46;;;;;;;41.57;25.00;;;8.60;96.30;;;8.19;92.87;97811.00;5063850;28;20694;-71
2021/05/01 02:39:14;;;;;;;51.33;28.07;;;8.50;96.40;;;8.20;92.17;97802.31;5061725;28;20744;-71
2021/05/01 02:41:42;;;;;;;50.50;29.00;;;8.50;96.60;;;8.23;92.78;97799.50;5064324;28;20643;-71
2021/05/01 02:44:09;;;;;;;50.43;27.73;;;8.60;96.80;;;8.22;93.99;97790.03;5056226;28;20662;-70
2021/05/01 02:46:37;;;;;;;50.20;30.13;;;8.60;96.90;;;8.24;93.17;97793.41;5058026;28;20686;-70
2021/05/01 02:49:05;;;;;;;89.13;29.90;;;8.60;97.00;;;8.31;94.30;97786.03;5058042;28;20982;-70
2021/05/01 02:51:33;;;;;;;50.13;31.10;;;8.60;97.00;;;8.22;93.13;97771.88;5058997;28;21458;-70
2021/05/01 02:54:00;;;;;;;48.00;29.97;;;8.50;96.60;;;8.21;92.72;97775.41;5060743;28;20722;-70
2021/05/01 02:56:28;;;;;;;52.17;31.80;;;8.50;96.70;;;8.21;92.25;97780.59;5060265;28;20648;-70
2021/05/01 02:58:55;;;;;;;52.67;31.97;;;8.60;96.90;;;8.21;93.17;97775.41;5063378;28;20635;-70
2021/05/01 03:01:23;;;;;;;52.73;31.97;;;8.60;96.80;;;8.20;93.25;97768.53;5059853;28;20661;-70
2021/05/01 03:03:50;;;;;;;54.40;32.57;;;8.50;96.70;;;8.21;93.43;97765.03;5059674;28;20685;-70
2021/05/01 03:06:19;;;;;;;46.70;29.77;;;8.60;96.90;;;8.24;94.00;97769.16;5060937;28;20730;-70
2021/05/01 03:08:46;;;;;;;51.77;29.50;;;8.60;96.90;;;8.24;93.94;97770.03;5061710;28;20623;-70
2021/05/01 03:11:14;;;;;;;47.13;29.20;;;8.60;96.90;;;8.27;92.46;97763.78;5064331;28;21076;-70
2021/05/01 03:13:42;;;;;;;44.93;28.67;;;8.60;96.70;;;8.25;92.13;97758.69;5062674;28;20701;-70
2021/05/01 03:16:09;;;;;;;46.83;30.20;;;8.60;96.50;;;8.21;93.17;97748.59;5067020;28;20793;-70
2021/05/01 03:18:37;;;;;;;46.40;27.87;;;8.50;96.80;;;8.19;93.29;97759.06;5067893;28;20627;-70
2021/05/01 03:21:05;;;;;;;40.13;27.10;;;8.50;96.60;;;8.20;92.26;97759.94;5065011;28;20627;-70
2021/05/01 03:23:33;;;;;;;45.90;27.73;;;8.50;96.40;;;8.15;93.36;97751.59;5064275;28;20631;-70
2021/05/01 03:26:01;;;;;;;44.90;28.20;;;8.50;96.50;;;8.13;92.98;97738.72;5065012;28;20634;-70
2021/05/01 03:28:31;;;;;;;41.77;26.80;;;8.50;96.40;;;8.09;92.74;97728.59;5064917;28;20647;-70
2021/05/01 03:30:58;;;;;;;39.93;26.20;;;8.40;96.30;;;8.06;92.57;97727.03;5062591;28;21218;-70
2021/05/01 03:33:28;;;;;;;39.00;26.00;;;8.40;96.40;;;8.02;91.86;97722.94;5058753;28;20641;-70
2021/05/01 03:35:56;;;;;;;36.90;26.00;;;8.40;96.20;;;7.98;92.85;97734.47;5064523;28;20672;-70
2021/05/01 03:38:24;;;;;;;36.80;25.60;;;8.40;96.20;;;7.95;91.09;97731.22;5068207;28;20626;-70
2021/05/01 03:40:52;;;;;;;35.27;24.83;;;8.30;96.00;;;7.92;92.52;97730.59;5058397;28;20659;-70
2021/05/01 03:43:20;;;;;;;39.13;26.13;;;8.30;96.00;;;7.92;91.30;97730.59;5065606;28;20657;-70
2021/05/01 03:45:48;;;;;;;40.13;25.40;;;8.30;96.00;;;7.90;92.30;97732.47;5060529;28;21084;-70
2021/05/01 03:48:15;;;;;;;40.63;25.60;;;8.30;95.90;;;7.88;91.74;97721.31;5063837;28;20638;-71
2021/05/01 03:50:43;;;;;;;48.90;31.40;;;8.30;96.00;;;7.97;92.85;97724.19;5063452;28;20751;-70
2021/05/01 03:53:10;;;;;;;43.87;28.20;;;8.30;96.20;;;8.01;92.32;97736.88;5064716;28;20209;-70
2021/05/01 03:55:38;;;;;;;41.80;27.27;;;8.30;96.20;;;8.05;91.70;97750.47;5080292;28;20684;-70
2021/05/01 03:58:06;;;;;;;46.33;29.03;;;8.40;96.40;;;8.09;92.65;97765.78;5064986;28;20734;-70
2021/05/01 04:00:34;;;;;;;45.67;28.00;;;8.40;96.40;;;8.11;92.58;97755.28;5063266;28;20635;-70
2021/05/01 04:03:02;;;;;;;46.57;29.03;;;8.50;96.40;;;8.13;93.05;97751.72;5058561;28;20680;-70
2021/05/01 04:05:29;;;;;;;44.20;28.07;;;8.50;96.30;;;8.15;92.21;97754.19;5060869;28;20636;-70
2021/05/01 04:07:57;;;;;;;44.10;27.40;;;8.50;96.10;;;8.16;91.11;97751.50;5067891;28;20631;-70
2021/05/01 04:10:25;;;;;;;40.57;24.50;;;8.50;96.00;;;8.18;92.01;97749.63;5065551;28;20976;-70
2021/05/01 04:12:53;;;;;;;42.77;25.47;;;8.50;95.80;;;8.15;91.42;97752.44;5063738;28;21055;-70
2021/05/01 04:15:22;;;;;;;42.40;25.03;;;8.50;95.50;;;8.12;90.37;97755.22;5060581;28;21217;-70
2021/05/01 04:17:49;;;;;;;36.30;23.80;;;8.50;95.40;;;8.04;91.09;97760.03;5065597;28;20674;-70
2021/05/01 04:20:18;;;;;;;37.53;22.93;;;8.40;95.40;;;8.01;90.78;97761.97;5065427;28;20628;-70
2021/05/01 04:22:45;;;;;;;36.00;22.90;;;8.40;95.50;;;7.99;90.80;97763.84;5065260;28;20654;-70
2021/05/01 04:25:13;;;;;;;43.33;25.10;;;8.30;95.60;;;8.00;91.05;97765.53;5066248;28;21158;-70
2021/05/01 04:27:41;;;;;;;41.83;25.00;;;8.30;95.70;;;8.00;91.71;97768.13;5065437;28;21099;-70
2021/05/01 04:30:12;;;;;;;39.30;25.90;;;8.40;95.70;;;8.01;91.30;97768.03;5062219;28;21257;-70
2021/05/01 04:32:41;;;;;;;37.40;23.90;;;8.40;95.80;;;8.06;92.23;97770.34;5063463;28;20624;-70
2021/05/01 04:35:10;;;;;;;36.27;24.67;;;8.40;95.80;;;8.08;91.97;97769.28;5056563;28;21391;-70
2021/05/01 04:37:38;;;;;;;38.43;24.73;;;8.40;95.90;;;8.08;90.51;97774.47;5066958;28;20700;-70
2021/05/01 04:40:07;;;;;;;39.63;26.10;;;8.40;95.70;;;8.11;90.54;97778.66;5044753;28;20646;-70
2021/05/01 04:42:37;;;;;;;41.80;25.30;;;8.40;95.80;;;8.12;90.56;97778.59;5066873;28;20715;-70
2021/05/01 04:45:06;;;;;;;41.70;24.60;;;8.50;95.90;;;8.15;90.67;97769.78;5061953;28;20675;-70
2021/05/01 04:47:34;;;;;;;48.13;26.10;;;8.50;96.00;;;8.18;91.12;97767.00;5062508;28;21173;-70
2021/05/01 04:50:03;;;;;;;46.03;25.97;;;8.50;95.90;;;8.18;91.69;97759.19;5061258;28;21171;-70
2021/05/01 04:52:31;;;;;;;43.40;25.97;;;8.50;95.70;;;8.20;90.28;97759.94;5063069;28;20636;-70
2021/05/01 04:55:00;;;;;;;43.30;25.40;;;8.50;95.70;;;8.23;90.95;97768.34;5061543;28;21111;-70
2021/05/01 04:57:28;;;;;;;44.33;25.53;;;8.50;95.80;;;8.25;90.83;97750.88;5064106;28;20655;-70
2021/05/01 04:59:56;;;;;;;38.13;25.67;;;8.60;95.80;;;8.24;91.53;97749.25;5062017;28;20667;-70
2021/05/01 05:02:23;;;;;;;34.10;23.17;;;8.60;95.60;;;8.26;90.12;97754.34;5063021;28;20632;-72
2021/05/01 05:04:51;;;;;;;44.23;23.90;;;8.60;95.60;;;8.32;90.74;97757.38;5060897;28;20644;-72
2021/05/01 05:07:20;;;;;;;38.70;25.13;;;8.60;95.80;;;8.37;90.91;97764.88;5065111;28;20647;-72
2021/05/01 05:09:48;;;;;;;37.30;24.30;;;8.60;95.90;;;8.42;90.45;97763.63;5070793;28;20659;-76
2021/05/01 05:12:15;;;;;;;36.87;24.77;;;8.70;95.80;;;8.47;90.49;97766.75;5067112;28;20630;-74
2021/05/01 05:14:43;;;;;;;38.80;23.40;;;8.70;95.90;;;8.51;91.40;97765.66;5045930;28;20697;-74
2021/05/01 05:17:11;;;;;;;37.27;24.23;;;8.70;95.80;;;8.56;91.86;97761.78;5060252;28;21139;-74
2021/05/01 05:19:44;;;;;;;34.80;23.30;;;8.80;95.80;;;8.59;90.80;97764.19;5073484;28;20631;-73
2021/05/01 05:22:12;;;;;;;38.20;24.63;;;8.80;95.90;;;8.66;90.52;97756.81;5064509;28;20635;-74
2021/05/01 05:24:41;;;;;;;32.83;21.80;;;8.90;95.80;;;8.72;89.79;97756.41;5061043;28;20704;-74
2021/05/01 05:27:09;;;;;;;33.37;22.93;;;8.90;95.30;;;8.78;90.59;97758.59;5061827;28;20696;-74
2021/05/01 05:29:38;;;;;;;34.57;22.90;;;9.00;95.50;;;8.89;89.89;97766.53;5081491;28;20628;-74
2021/05/01 05:32:06;;;;;;;30.30;21.40;;;9.10;95.10;;;8.99;88.79;97761.44;5061036;28;20697;-74
2021/05/01 05:34:35;;;;;;;31.63;22.03;;;9.20;94.80;;;9.09;88.09;97761.66;5066532;28;21233;-74
2021/05/01 05:37:03;;;;;;;32.97;22.07;;;9.30;94.60;;;9.10;88.74;97763.31;5067089;28;21149;-74
2021/05/01 05:39:31;;;;;;;31.33;22.23;;;9.30;94.40;;;9.13;88.13;97765.72;5052372;28;20711;-74
2021/05/01 05:42:00;;;;;;;38.50;24.33;;;9.30;94.40;;;9.15;88.80;97763.84;5063536;28;20632;-74
2021/05/01 05:44:28;;;;;;;36.17;24.37;;;9.30;94.60;;;9.20;89.01;97773.00;5058627;28;20639;-73
2021/05/01 05:46:56;;;;;;;36.00;23.67;;;9.30;95.10;;;9.24;89.70;97774.44;5065481;28;20623;-74
2021/05/01 05:49:23;;;;;;;32.77;22.40;;;9.40;95.20;;;9.21;89.57;97774.66;5040500;28;20662;-74
2021/05/01 05:51:51;;;;;;;33.80;23.33;;;9.40;94.70;;;9.30;88.92;97768.81;5066406;28;20640;-74
2021/05/01 05:54:19;;;;;;;31.80;22.63;;;9.50;95.00;;;9.52;89.04;97766.41;5057058;28;20644;-74
2021/05/01 05:56:47;;;;;;;34.80;23.20;;;9.70;95.10;;;9.64;87.27;97750.78;5061410;28;20648;-74
2021/05/01 05:59:17;;;;;;;35.50;24.57;;;9.70;94.30;;;9.84;87.49;97746.78;5063122;28;20647;-74
2021/05/01 06:01:47;;;;;;;35.07;23.80;;;9.90;94.50;;;10.16;87.63;97749.56;5064139;28;20737;-74
2021/05/01 06:04:18;;;;;;;32.30;22.93;;;10.10;94.10;;;10.57;85.08;97740.41;5063303;28;20639;-74
2021/05/01 06:06:55;;;;;;;31.43;22.10;;;10.50;93.60;;;10.69;84.27;97729.09;5062109;28;20678;-74
2021/05/01 06:09:22;;;;;;;31.03;21.47;;;10.60;92.70;;;10.66;84.51;97744.09;5063938;28;20635;-74
2021/05/01 06:11:54;;;;;;;37.27;24.43;;;10.60;92.00;;;11.07;84.71;97734.84;5061134;28;20685;-74
2021/05/01 06:14:26;;;;;;;32.53;23.93;;;11.00;92.80;;;10.99;84.09;97735.44;5063140;28;20667;-74
2021/05/01 06:16:55;;;;;;;30.90;21.70;;;11.00;91.80;;;10.90;83.98;97738.75;5062948;28;21052;-73
2021/05/01 06:19:24;;;;;;;33.40;23.13;;;11.00;91.90;;;10.83;84.95;97742.75;5066206;28;20644;-74
2021/05/01 06:21:52;;;;;;;33.80;24.13;;;11.00;91.90;;;10.80;85.10;97763.00;5059821;28;20639;-74
2021/05/01 06:24:21;;;;;;;34.77;23.90;;;11.00;92.20;;;10.81;86.01;97764.69;5057055;28;20632;-74
2021/05/01 06:26:50;;;;;;;34.57;25.40;;;11.00;92.40;;;10.80;86.72;97746.53;5044301;28;20662;-74
2021/05/01 06:29:18;;;;;;;34.77;24.80;;;11.00;92.70;;;10.80;85.34;97749.16;5073084;28;20713;-74
2021/05/01 06:31:47;;;;;;;33.20;23.80;;;11.00;92.30;;;10.79;85.36;97740.47;5063618;28;20642;-74
2021/05/01 06:34:15;;;;;;;35.97;24.33;;;11.00;92.30;;;10.80;84.67;97736.94;5061182;28;21364;-74
2021/05/01 06:36:43;;;;;;;33.70;24.57;;;10.90;91.80;;;10.97;86.00;97733.88;5057795;28;21300;-74
2021/05/01 06:39:13;;;;;;;30.93;23.10;;;11.00;92.10;;;11.20;84.41;97728.59;5062416;28;20656;-74
2021/05/01 06:41:53;;;;;;;33.23;24.33;;;11.20;92.20;;;11.37;86.04;97739.38;5065203;28;21025;-74
2021/05/01 06:44:43;;;;;;;35.93;25.10;;;11.40;92.70;;;11.57;85.49;97756.16;5065904;28;22818;-74
2021/05/01 06:47:15;;;;;;;34.03;24.10;;;11.60;92.20;;;11.61;82.29;97753.19;5064502;28;20631;-74
2021/05/01 06:49:53;;;;;;;33.60;24.90;;;11.70;91.50;;;11.68;84.13;97748.31;5063067;28;20646;-74
2021/05/01 06:52:23;;;;;;;34.33;24.10;;;11.70;91.70;;;11.69;82.94;97745.56;5061057;28;20660;-74
2021/05/01 06:54:52;;;;;;;33.27;23.60;;;11.80;91.30;;;11.68;82.18;97741.31;5060067;28;21258;-74
2021/05/01 06:57:24;;;;;;;32.13;23.00;;;11.80;90.60;;;11.75;83.72;97754.72;5062145;28;20729;-74
2021/05/01 06:59:55;;;;;;;31.83;24.70;;;11.80;90.90;;;11.85;82.77;97761.72;5042983;28;20631;-74
2021/05/01 07:02:27;;;;;;;35.17;26.33;;;11.90;90.70;;;11.90;83.86;97752.56;5063967;28;20628;-74
2021/05/01 07:04:57;;;;;;;34.87;24.73;;;12.00;90.90;;;11.92;82.09;97740.22;5060572;28;20635;-73
2021/05/01 07:07:28;;;;;;;29.33;22.40;;;12.00;90.00;;;11.93;81.20;97743.66;5062330;28;20624;-74
2021/05/01 07:10:05;;;;;;;41.63;24.83;;;12.00;89.20;;;11.88;82.19;97754.47;5055921;28;21225;-74
2021/05/01 07:12:33;;;;;;;34.90;27.20;;;12.00;89.80;;;11.89;81.83;97757.91;5057337;28;20608;-72
2021/05/01 07:15:03;;;;;;;33.53;24.33;;;12.00;90.00;;;11.90;80.18;97752.56;5060183;28;20659;-74
2021/05/01 07:17:32;;;;;;;29.67;21.50;;;12.00;89.10;;;11.93;81.62;97747.09;5058198;28;21010;-73
2021/05/01 07:20:01;;;;;;;36.43;25.70;;;12.10;89.20;;;12.00;81.39;97743.06;5058807;28;20643;-73
2021/05/01 07:22:29;;;;;;;33.83;24.60;;;12.10;89.70;;;12.19;80.50;97745.84;5062287;28;20631;-73
2021/05/01 07:24:58;;;;;;;34.50;26.33;;;12.20;88.00;;;12.49;82.40;97744.19;5067195;28;20633;-73
2021/05/01 07:27:34;;;;;;;32.23;23.40;;;12.50;90.00;;;12.63;79.29;97743.06;5068029;28;20624;-73
2021/05/01 07:30:21;;;;;;;31.57;25.13;;;12.60;87.50;;;12.71;79.43;97739.69;5073425;28;20632;-73
2021/05/01 07:33:10;;;;;;;32.93;25.03;;;12.70;88.70;;;12.62;79.20;97741.44;5050626;28;21010;-73
2021/05/01 07:35:39;;;;;;;32.53;24.10;;;12.60;85.20;;;12.54;77.68;97739.44;5068327;28;21018;-73
2021/05/01 07:38:12;;;;;;;39.33;26.80;;;12.60;85.10;;;12.48;79.52;97731.22;5068054;28;21039;-73
2021/05/01 07:40:40;;;;;;;33.40;25.70;;;12.50;87.60;;;12.45;78.58;97726.28;5065774;28;20663;-74
2021/05/01 07:43:09;;;;;;;33.30;25.63;;;12.50;84.80;;;12.39;76.52;97711.09;5067364;28;20697;-74
2021/05/01 07:45:39;;;;;;;33.87;25.23;;;12.50;82.90;;;12.48;77.88;97705.09;5068342;28;20629;-73
2021/05/01 07:48:11;;;;;;;34.13;25.83;;;12.50;83.80;;;12.58;78.34;97708.63;5068595;28;20624;-73
2021/05/01 07:50:39;;;;;;;32.87;24.97;;;12.60;84.40;;;12.63;78.55;97709.06;5067175;28;20628;-74
2021/05/01 07:53:08;;;;;;;31.20;24.93;;;12.70;84.50;;;12.68;78.46;97706.91;5065325;28;20632;-72
2021/05/01 07:55:37;;;;;;;35.40;25.90;;;12.70;84.20;;;12.62;78.16;97710.84;5082609;28;21217;-67
2021/05/01 07:58:05;;;;;;;32.43;23.90;;;12.70;82.50;;;12.56;76.47;97711.34;5065332;28;20725;-69
2021/05/01 08:00:34;;;;;;;38.80;26.50;;;12.70;82.30;;;12.51;78.18;97715.28;5064760;28;21465;-75
2021/05/01 08:03:02;;;;;;;34.60;26.23;;;12.60;82.80;;;12.46;79.17;97720.06;5067930;28;20677;-71
2021/05/01 08:05:31;;;;;;;33.50;27.50;;;12.60;83.20;;;12.49;77.83;97730.28;5071859;28;20632;-74
2021/05/01 08:07:59;;;;;;;36.03;26.87;;;12.60;84.20;;;12.49;78.12;97738.97;5068145;28;21029;-74
2021/05/01 08:10:41;;;;;;;35.57;27.47;;;12.60;84.70;;;12.54;80.20;97715.91;5068466;28;20623;-73
2021/05/01 08:13:23;;;;;;;36.80;27.10;;;12.70;87.00;;;12.63;79.97;97714.28;5108620;27;21144;-72
2021/05/01 08:16:03;;;;;;;35.77;26.37;;;12.70;87.30;;;12.75;79.56;97691.41;5082350;28;20631;-72
2021/05/01 08:18:30;;;;;;;35.37;27.60;;;12.80;85.30;;;12.89;79.87;97691.09;5065821;28;21193;-72
2021/05/01 08:20:58;;;;;;;38.60;27.53;;;12.90;85.60;;;12.97;78.71;97704.38;5064997;28;20692;-72
2021/05/01 08:23:32;;;;;;;34.90;26.87;;;13.00;85.80;;;13.01;77.55;97718.88;5086624;28;20631;-72
2021/05/01 08:26:00;;;;;;;38.80;28.30;;;13.10;84.60;;;13.01;78.24;97703.16;5087021;28;20640;-72
2021/05/01 08:28:29;;;;;;;36.27;26.80;;;13.10;84.60;;;13.02;77.51;97702.22;5108742;28;20634;-71
2021/05/01 08:30:56;;;;;;;33.77;24.90;;;13.10;83.50;;;12.94;75.14;97719.50;5096784;28;20615;-74
2021/05/01 08:33:24;;;;;;;35.60;26.20;;;13.10;81.30;;;12.81;77.35;97724.09;5097694;28;20715;-74
2021/05/01 08:35:52;;;;;;;34.03;25.63;;;12.90;81.00;;;12.71;77.02;97718.75;5087720;28;20644;-74
2021/05/01 08:38:20;;;;;;;37.57;27.23;;;12.90;81.30;;;12.70;77.82;97713.66;5086997;28;20622;-74
2021/05/01 08:41:01;;;;;;;35.70;25.93;;;12.80;82.40;;;12.66;77.94;97733.19;5084663;28;20655;-74
2021/05/01 08:43:36;;;;;;;38.00;27.63;;;12.80;82.40;;;12.62;79.81;97737.00;5089644;28;20626;-74
2021/05/01 08:46:12;;;;;;;35.10;26.30;;;12.80;84.20;;;12.52;78.25;97732.66;5088778;28;20671;-73
2021/05/01 08:48:44;;;;;;;48.13;39.43;;;12.70;82.80;;;12.47;77.74;97729.59;5093784;28;20635;-74
2021/05/01 08:51:13;;;;;;;43.57;32.00;;;12.70;83.20;;;12.39;76.70;97726.78;5085583;28;20631;-74
2021/05/01 08:53:41;;;;;;;38.23;27.13;;;12.60;81.30;;;12.36;77.79;97722.63;5081700;28;20987;-73
2021/05/01 08:56:09;;;;;;;34.87;25.30;;;12.60;83.30;;;12.39;77.99;97722.38;5083737;28;20996;-73
2021/05/01 08:58:38;;;;;;;36.53;27.53;;;12.60;83.50;;;12.44;79.25;97716.78;5100499;28;20636;-73
2021/05/01 09:01:08;;;;;;;33.80;25.47;;;12.60;83.50;;;12.48;78.00;97715.53;5082428;28;20631;-73
2021/05/01 09:03:37;;;;;;;32.83;24.63;;;12.60;83.40;;;12.43;75.96;97717.72;5092972;28;21010;-73
2021/05/01 09:06:08;;;;;;;35.50;25.10;;;12.60;81.50;;;12.45;79.38;97731.50;5080855;28;20704;-73
2021/05/01 09:08:40;;;;;;;35.07;26.77;;;12.60;83.50;;;12.64;78.68;97726.44;5087801;28;20619;-73
2021/05/01 09:11:09;;;;;;;36.87;25.60;;;12.80;84.60;;;12.81;77.59;97731.94;5091006;28;21194;-73
2021/05/01 09:13:48;;;;;;;32.00;24.93;;;12.90;84.00;;;13.01;77.53;97731.97;5100203;28;20691;-73
2021/05/01 09:16:21;;;;;;;34.90;25.17;;;13.00;83.50;;;13.20;76.38;97734.72;5099284;28;21220;-73
2021/05/01 09:18:53;;;;;;;34.00;25.53;;;13.20;83.30;;;13.25;75.90;97737.75;5101691;28;20618;-73
2021/05/01 09:21:32;;;;;;;33.00;25.17;;;13.30;81.00;;;13.27;75.64;97730.59;5085657;28;20624;-73
2021/05/01 09:24:03;;;;;;;34.10;25.27;;;13.30;80.70;;;13.34;75.40;97734.38;5066906;28;20739;-72
2021/05/01 09:26:37;;;;;;;30.70;22.93;;;13.40;80.30;;;13.42;75.10;97729.28;5074179;28;20715;-73
2021/05/01 09:29:06;;;;;;;32.00;24.87;;;13.40;80.70;;;13.36;73.93;97725.41;5085272;28;20632;-72
2021/05/01 09:31:41;;;;;;;32.43;23.83;;;13.40;77.90;;;13.29;74.57;97719.03;5082276;28;20641;-72
2021/05/01 09:34:12;;;;;;;31.90;24.60;;;13.40;79.10;;;13.29;75.41;97715.56;5066782;28;20969;-72
2021/05/01 09:36:41;;;;;;;32.27;24.03;;;13.40;78.80;;;13.34;74.18;97706.38;5084853;28;21507;-72
2021/05/01 09:39:11;;;;;;;30.30;23.67;;;13.40;78.40;;;13.33;74.17;97712.56;5084762;28;20634;-72
2021/05/01 09:41:41;;;;;;;30.03;23.70;;;13.40;77.90;;;13.46;75.34;97709.75;5098067;28;20616;-72
2021/05/01 09:44:12;;;;;;;32.50;24.77;;;13.50;79.60;;;13.64;75.66;97706.34;5080141;28;21007;-72
2021/05/01 09:46:46;;;;;;;29.80;22.77;;;13.70;80.40;;;13.79;73.23;97700.59;5083510;28;20629;-72
2021/05/01 09:49:18;;;;;;;30.40;22.53;;;13.80;78.20;;;13.87;73.06;97695.50;5078965;28;21183;-73
2021/05/01 09:51:53;;;;;;;32.57;23.73;;;13.80;78.20;;;13.94;73.01;97694.03;5072361;28;20641;-72
2021/05/01 09:54:26;;;;;;;32.47;24.80;;;13.90;76.80;;;13.82;73.29;97689.03;5082492;28;20617;-72
2021/05/01 09:57:00;;;;;;;33.47;25.40;;;13.80;76.00;;;13.95;74.42;97698.31;5067595;28;20614;-72
2021/05/01 09:59:39;;;;;;;33.10;25.10;;;13.90;79.00;;;13.98;74.61;97699.81;5068629;28;20628;-72
2021/05/01 10:02:11;;;;;;;31.80;25.50;;;14.00;78.40;;;13.95;75.83;97687.81;5071249;28;21054;-72
2021/05/01 10:04:40;;;;;;;31.57;25.27;;;14.00;79.10;;;13.89;74.72;97685.75;5071620;28;20642;-72
2021/05/01 10:07:10;;;;;;;33.47;25.67;;;14.00;78.70;;;13.80;73.22;97693.56;5072725;28;20636;-72
2021/05/01 10:09:41;;;;;;;33.73;24.63;;;14.00;77.00;;;13.58;71.82;97690.34;5071781;28;21046;-72
2021/05/01 10:12:15;;;;;;;30.40;23.43;;;13.80;74.50;;;13.56;74.00;97679.16;5080054;28;20648;-72
2021/05/01 10:14:46;;;;;;;32.07;24.93;;;13.70;77.00;;;13.54;72.80;97683.69;5075821;28;20650;-73
2021/05/01 10:17:17;;;;;;;33.30;25.90;;;13.70;75.60;;;13.48;72.40;97685.03;5078989;28;20624;-73
2021/05/01 10:19:56;;;;;;;38.60;25.90;;;13.60;76.00;;;13.65;74.46;97687.03;5083908;28;20650;-73
2021/05/01 10:22:30;;;;;;;36.80;26.13;;;13.70;78.00;;;13.69;71.95;97678.78;5051727;28;20622;-73